Preble, New York
Current Conditions -  °F | °C
As of 8:35 PM on Monday 20 Oct 2014 (Local Time) from KN03 Reporting Station
Light Rain Light Rain  
Wind Chill: 10°   Ceiling: 6000
Heat Index: 10°   Visibility: 10mi
Dew Point:   Wind: 8mph
Humidity: 62%   Direction: 190°S
Pressure: 29.9"   Gusts: 16mph
Location:  42.74°N, 76.15°W
Report Text: KN03 210035Z AUTO 19007G14KT 10SM -RA SCT046 OVC060 10/03 A2990 RMK AO2
Loading
Personal Weather Stations






























Interactive Weather Map
Tropical Storm Tracking
New forecast layout! Learn more

10-Day Weather Forecast

Advertisements
Track Severe Weather on mobile